📊 Raw Sensor Data

Showing records 46301 to 46325 of 85,068 total

ID Distance (ft) Battery V Battery A Int Temp (°F) Int Humid (%) Ext Temp (°F) Solar V RSSI SNR Time Stamp
38780 -- 3.92 -5 49 41 49 0.00 -75 8 04/25/2025 03:15 AM
38779 -- 3.92 -5 49 41 49 0.00 -75 8 04/25/2025 03:00 AM
38778 -- 3.92 -5 49 41 50 0.10 -73 8 04/25/2025 02:45 AM
38777 -- 3.92 -5 49 41 50 0.00 -75 7 04/25/2025 02:30 AM
38776 -- 3.98 -5 49 41 50 0.00 -75 8 04/25/2025 02:15 AM
38775 -- 3.92 -5 49 41 50 0.00 -73 8 04/25/2025 02:00 AM
38774 -- 3.92 -5 49 41 50 0.00 -75 8 04/25/2025 01:45 AM
38773 -- 3.98 -5 49 41 50 0.00 -74 8 04/25/2025 01:30 AM
38772 -- 3.92 -5 49 41 50 0.00 -73 8 04/25/2025 01:15 AM
38771 -- 3.92 -5 49 41 50 0.10 -73 8 04/25/2025 01:00 AM
38770 -- 3.93 -35 49 41 50 0.00 -74 8 04/25/2025 12:45 AM
38769 -- 3.92 -5 49 41 50 0.00 -72 8 04/25/2025 12:30 AM
38768 -- 3.93 -5 49 42 50 0.00 -74 8 04/25/2025 12:15 AM
38767 -- 3.93 -5 49 42 50 0.00 -74 7 04/25/2025 12:01 AM
38766 -- 3.93 -5 49 42 50 0.00 -75 8 04/24/2025 11:45 PM
38765 -- 3.93 -5 50 42 50 0.00 -74 8 04/24/2025 11:15 PM
38764 -- 3.93 -5 50 42 51 0.10 -75 8 04/24/2025 11:00 PM
38763 -- 3.93 -5 50 42 51 0.00 -75 7 04/24/2025 10:45 PM
38762 -- 3.93 -5 50 42 51 0.00 -74 8 04/24/2025 10:30 PM
38761 -- 3.93 -5 51 42 51 0.00 -73 8 04/24/2025 10:15 PM
38760 -- 3.93 -5 51 42 51 0.00 -71 8 04/24/2025 10:00 PM
38759 -- 3.99 -5 51 42 52 0.10 -78 8 04/24/2025 09:45 PM
38758 -- 3.94 -5 51 42 52 0.00 -75 8 04/24/2025 09:30 PM
38757 -- 3.94 -5 51 43 52 0.00 -76 8 04/24/2025 09:16 PM
38756 -- 4.00 -5 52 43 52 0.00 -80 8 04/24/2025 09:00 PM